createdAt,value
2023-04-18T00:00:16.359Z,8.73
2023-04-18T00:02:37.053Z,8.73
2023-04-18T00:02:43.947Z,6.55
2023-04-18T00:05:12.274Z,6.75
2023-04-18T00:07:36.993Z,6.75
2023-04-18T00:07:39.237Z,12.27
2023-04-18T00:10:06.582Z,10.90
2023-04-18T00:12:34.377Z,8.02
2023-04-18T00:12:36.976Z,8.02
2023-04-18T00:15:04.198Z,13.68
2023-04-18T00:17:31.712Z,6.93
2023-04-18T00:17:36.997Z,6.93
2023-04-18T00:19:58.378Z,7.93
2023-04-18T00:22:25.417Z,11.05
2023-04-18T00:22:36.988Z,11.05
2023-04-18T00:24:52.158Z,6.75
2023-04-18T00:27:19.206Z,6.97
2023-04-18T00:27:36.958Z,6.97
2023-04-18T00:29:45.710Z,7.00
2023-04-18T00:32:12.042Z,9.70
2023-04-18T00:32:36.996Z,9.70
2023-04-18T00:34:38.894Z,6.95
2023-04-18T00:37:05.254Z,9.02
2023-04-18T00:37:36.973Z,9.02
2023-04-18T00:39:31.619Z,7.97
2023-04-18T00:41:58.074Z,5.82
2023-04-18T00:42:36.991Z,5.82
2023-04-18T00:44:24.449Z,6.97
2023-04-18T00:46:51.177Z,6.88
2023-04-18T00:47:37.039Z,6.88
2023-04-18T00:49:17.615Z,6.10
2023-04-18T00:51:44.563Z,8.25
2023-04-18T00:52:36.985Z,8.25
2023-04-18T00:54:13.347Z,6.47
2023-04-18T00:56:40.183Z,6.18
2023-04-18T00:57:36.992Z,6.18
2023-04-18T00:59:08.320Z,6.45
2023-04-18T01:01:34.718Z,5.88
2023-04-18T01:02:37.086Z,5.88
2023-04-18T01:04:01.359Z,8.52
2023-04-18T01:06:30.949Z,6.43
2023-04-18T01:07:36.990Z,6.43
2023-04-18T01:08:57.445Z,13.20
2023-04-18T01:11:24.076Z,13.50
2023-04-18T01:12:36.980Z,13.50
2023-04-18T01:14:01.517Z,10.45
2023-04-18T01:16:29.114Z,6.80
2023-04-18T01:17:37.010Z,6.80
2023-04-18T01:18:56.601Z,5.97
2023-04-18T01:21:23.000Z,6.32
2023-04-18T01:22:36.992Z,6.32
2023-04-18T01:23:50.655Z,7.57
2023-04-18T01:26:17.102Z,8.45
2023-04-18T01:27:36.974Z,8.45
2023-04-18T01:28:43.451Z,7.50
2023-04-18T01:31:10.174Z,6.85
2023-04-18T01:32:37.022Z,6.85
2023-04-18T01:33:37.263Z,7.05
2023-04-18T01:36:03.909Z,6.93
2023-04-18T01:37:37.030Z,6.93
2023-04-18T01:38:30.272Z,17.95
2023-04-18T01:40:56.789Z,7.20
2023-04-18T01:42:36.968Z,7.20
2023-04-18T01:43:23.181Z,7.18
2023-04-18T01:45:49.491Z,7.70
2023-04-18T01:47:37.019Z,7.70
2023-04-18T01:48:15.807Z,7.13
2023-04-18T01:50:42.134Z,7.40
2023-04-18T01:52:37.049Z,7.40
2023-04-18T01:53:08.546Z,7.43
2023-04-18T01:55:34.921Z,7.22
2023-04-18T01:57:36.968Z,7.22
2023-04-18T01:58:01.338Z,8.38
2023-04-18T02:00:27.857Z,7.25
2023-04-18T02:02:37.169Z,7.25
2023-04-18T02:02:54.510Z,8.40
2023-04-18T02:05:21.261Z,7.80
2023-04-18T02:07:36.977Z,7.80
2023-04-18T02:07:49.191Z,5.93
2023-04-18T02:10:15.793Z,6.18
2023-04-18T02:12:37.002Z,6.18
2023-04-18T02:12:42.292Z,9.38
2023-04-18T02:15:09.194Z,11.20
2023-04-18T02:17:36.337Z,8.98
2023-04-18T02:17:37.075Z,8.98
2023-04-18T02:20:02.857Z,6.97
2023-04-18T02:22:29.231Z,7.57
2023-04-18T02:22:36.996Z,7.57
2023-04-18T02:24:55.989Z,7.18
2023-04-18T02:27:22.353Z,7.65
2023-04-18T02:27:37.001Z,7.65
2023-04-18T02:29:48.683Z,6.95
2023-04-18T02:32:15.052Z,7.20
2023-04-18T02:32:37.054Z,7.20
2023-04-18T02:34:41.517Z,7.07
2023-04-18T02:37:08.107Z,6.28
2023-04-18T02:37:37.003Z,6.28
2023-04-18T02:39:34.518Z,8.05
2023-04-18T02:42:01.970Z,6.78
2023-04-18T02:42:37.010Z,6.78
2023-04-18T02:44:28.449Z,6.97
2023-04-18T02:46:54.864Z,6.65
2023-04-18T02:47:47.121Z,6.65
2023-04-18T02:49:23.563Z,7.80
2023-04-18T02:51:49.933Z,6.68
2023-04-18T02:52:37.036Z,6.68
2023-04-18T02:54:16.545Z,6.90
2023-04-18T02:56:43.004Z,6.55
2023-04-18T02:57:36.989Z,6.55
2023-04-18T02:59:09.452Z,7.45
2023-04-18T03:01:35.877Z,7.05
2023-04-18T03:02:37.088Z,7.05
2023-04-18T03:04:02.474Z,6.47
2023-04-18T03:06:29.431Z,7.03
2023-04-18T03:07:37.018Z,7.03
2023-04-18T03:08:55.864Z,7.03
2023-04-18T03:11:22.372Z,6.55
2023-04-18T03:12:37.042Z,6.55
2023-04-18T03:13:48.901Z,6.80
2023-04-18T03:16:15.783Z,6.80
2023-04-18T03:17:37.041Z,6.80
2023-04-18T03:18:42.195Z,5.70
2023-04-18T03:21:08.581Z,6.60
2023-04-18T03:22:37.008Z,6.60
2023-04-18T03:23:34.958Z,8.88
2023-04-18T03:26:04.035Z,7.07
2023-04-18T03:27:37.019Z,7.07
2023-04-18T03:28:30.945Z,7.10
2023-04-18T03:30:57.306Z,7.03
2023-04-18T03:32:37.100Z,7.03
2023-04-18T03:33:23.954Z,5.40
2023-04-18T03:35:50.643Z,6.68
2023-04-18T03:37:37.015Z,6.68
2023-04-18T03:38:17.070Z,6.68
2023-04-18T03:40:44.491Z,5.63
2023-04-18T03:42:37.001Z,5.63
2023-04-18T03:43:11.095Z,6.28
2023-04-18T03:45:37.416Z,6.43
2023-04-18T03:47:37.063Z,6.43
2023-04-18T03:48:04.044Z,9.98
2023-04-18T03:50:30.543Z,8.80
2023-04-18T03:52:37.011Z,8.80
2023-04-18T03:52:56.943Z,7.30
2023-04-18T03:55:23.374Z,5.63
2023-04-18T03:57:37.011Z,5.63
2023-04-18T03:57:50.036Z,6.53
2023-04-18T04:00:16.619Z,20.27
2023-04-18T04:02:37.281Z,20.27
2023-04-18T04:02:43.231Z,7.13
2023-04-18T04:05:09.712Z,6.82
2023-04-18T04:07:36.275Z,6.50
2023-04-18T04:07:37.004Z,6.50
2023-04-18T04:10:02.815Z,6.80
2023-04-18T04:12:29.275Z,6.55
2023-04-18T04:12:37.005Z,6.55
2023-04-18T04:15:01.768Z,6.60
2023-04-18T04:17:28.191Z,7.72
2023-04-18T04:17:37.045Z,7.72
2023-04-18T04:19:54.710Z,8.73
2023-04-18T04:22:21.013Z,6.40
2023-04-18T04:22:37.031Z,6.40
2023-04-18T04:24:47.856Z,6.10
2023-04-18T04:27:14.656Z,6.35
2023-04-18T04:27:37.027Z,6.35
2023-04-18T04:29:41.439Z,5.63
2023-04-18T04:32:08.315Z,6.47
2023-04-18T04:32:37.056Z,6.47
2023-04-18T04:34:35.635Z,5.68
2023-04-18T04:37:02.608Z,11.63
2023-04-18T04:37:37.042Z,11.63
2023-04-18T04:39:29.001Z,5.70
2023-04-18T04:41:57.630Z,6.43
2023-04-18T04:42:37.024Z,6.43
2023-04-18T04:44:25.801Z,5.78
2023-04-18T04:46:52.400Z,6.18
2023-04-18T04:47:37.075Z,6.18
2023-04-18T04:49:18.985Z,6.57
2023-04-18T04:51:47.423Z,6.72
2023-04-18T04:52:37.025Z,6.72
2023-04-18T04:54:14.251Z,8.68
2023-04-18T04:56:40.946Z,11.30
2023-04-18T04:57:37.003Z,11.30
2023-04-18T04:59:07.510Z,7.95
2023-04-18T05:01:34.105Z,6.22
2023-04-18T05:02:37.195Z,6.22
2023-04-18T05:04:00.785Z,5.90
2023-04-18T05:06:27.458Z,6.97
2023-04-18T05:07:37.069Z,6.97
2023-04-18T05:08:54.805Z,7.38
2023-04-18T05:11:21.162Z,9.27
2023-04-18T05:12:37.061Z,9.27
2023-04-18T05:13:47.554Z,6.13
2023-04-18T05:16:13.985Z,8.38
2023-04-18T05:17:37.146Z,8.38
2023-04-18T05:18:41.365Z,6.50
2023-04-18T05:21:07.805Z,6.63
2023-04-18T05:22:37.043Z,6.63
2023-04-18T05:23:37.438Z,12.65
2023-04-18T05:26:04.986Z,6.93
2023-04-18T05:27:37.028Z,6.93
2023-04-18T05:28:31.759Z,6.88
2023-04-18T05:31:01.371Z,6.93
2023-04-18T05:32:37.061Z,6.93
2023-04-18T05:33:29.187Z,6.53
2023-04-18T05:35:56.510Z,7.00
2023-04-18T05:37:37.028Z,7.00
2023-04-18T05:38:23.082Z,8.50
2023-04-18T05:40:51.131Z,7.95
2023-04-18T05:42:37.020Z,7.95
2023-04-18T05:43:19.428Z,6.93
2023-04-18T05:45:46.422Z,9.23
2023-04-18T05:47:37.092Z,9.23
2023-04-18T05:48:13.455Z,8.23
2023-04-18T05:50:40.005Z,11.10
2023-04-18T05:52:37.074Z,11.10
2023-04-18T05:53:06.558Z,9.48
2023-04-18T05:55:34.394Z,8.60
2023-04-18T05:57:37.077Z,8.60
2023-04-18T05:58:00.995Z,13.02
2023-04-18T06:00:27.912Z,8.75
2023-04-18T06:02:37.153Z,8.75
2023-04-18T06:02:54.452Z,9.93
2023-04-18T06:05:21.215Z,8.27
2023-04-18T06:07:37.089Z,8.27
2023-04-18T06:07:48.132Z,8.25
2023-04-18T06:10:15.762Z,11.30
2023-04-18T06:12:37.096Z,11.30
2023-04-18T06:12:42.343Z,7.15
2023-04-18T06:15:09.690Z,6.53
2023-04-18T06:17:36.165Z,10.13
2023-04-18T06:17:37.121Z,10.13
2023-04-18T06:20:04.907Z,11.85
2023-04-18T06:22:31.290Z,10.18
2023-04-18T06:22:37.124Z,10.18
2023-04-18T06:24:57.818Z,12.05
2023-04-18T06:27:31.373Z,9.30
2023-04-18T06:27:37.085Z,9.30
2023-04-18T06:29:58.526Z,9.90
2023-04-18T06:32:25.236Z,7.28
2023-04-18T06:32:37.121Z,7.28
2023-04-18T06:34:54.037Z,8.70
2023-04-18T06:37:20.587Z,7.70
2023-04-18T06:37:37.075Z,7.70
2023-04-18T06:39:47.135Z,12.95
2023-04-18T06:42:13.706Z,9.35
2023-04-18T06:42:37.189Z,9.35
2023-04-18T06:44:40.356Z,7.05
2023-04-18T06:47:06.772Z,8.32
2023-04-18T06:47:37.074Z,8.32
2023-04-18T06:49:33.148Z,6.57
2023-04-18T06:51:59.542Z,7.07
2023-04-18T06:52:37.106Z,7.07
2023-04-18T06:54:25.989Z,8.10
2023-04-18T06:56:52.690Z,18.50
2023-04-18T06:57:37.103Z,18.50
2023-04-18T06:59:21.370Z,8.20
2023-04-18T07:01:47.781Z,7.78
2023-04-18T07:02:37.202Z,7.78
2023-04-18T07:04:14.710Z,8.05
2023-04-18T07:06:44.409Z,12.32
2023-04-18T07:07:37.113Z,12.32
2023-04-18T07:09:10.950Z,8.27
2023-04-18T07:11:37.304Z,11.02
2023-04-18T07:12:37.120Z,11.02
2023-04-18T07:14:03.662Z,8.77
2023-04-18T07:16:30.066Z,9.50
2023-04-18T07:17:37.103Z,9.50
2023-04-18T07:18:56.752Z,7.25
2023-04-18T07:21:23.882Z,6.80
2023-04-18T07:22:37.101Z,6.80
2023-04-18T07:23:50.408Z,17.52
2023-04-18T07:26:16.831Z,7.85
2023-04-18T07:27:37.116Z,7.85
2023-04-18T07:28:43.282Z,5.85
2023-04-18T07:31:11.455Z,7.20
2023-04-18T07:32:37.137Z,7.20
2023-04-18T07:33:38.720Z,6.38
2023-04-18T07:36:06.026Z,7.88
2023-04-18T07:37:37.086Z,7.88
2023-04-18T07:38:35.250Z,8.48
2023-04-18T07:41:02.159Z,6.57
2023-04-18T07:42:37.101Z,6.57
2023-04-18T07:43:28.644Z,8.43
2023-04-18T07:45:55.220Z,7.13
2023-04-18T07:47:37.105Z,7.13
2023-04-18T07:48:22.458Z,7.53
2023-04-18T07:50:49.350Z,6.15
2023-04-18T07:52:38.196Z,6.15
2023-04-18T07:53:15.803Z,6.35
2023-04-18T07:55:43.254Z,6.03
2023-04-18T07:57:37.110Z,6.03
2023-04-18T07:58:13.002Z,7.13
2023-04-18T08:00:39.717Z,5.97
2023-04-18T08:02:37.158Z,5.97
2023-04-18T08:03:10.968Z,6.93
2023-04-18T08:05:41.769Z,7.22
2023-04-18T08:07:37.124Z,7.22
2023-04-18T08:08:10.599Z,6.50
2023-04-18T08:10:37.033Z,6.72
2023-04-18T08:12:37.131Z,6.72
2023-04-18T08:13:04.118Z,7.20
2023-04-18T08:15:32.852Z,13.10
2023-04-18T08:17:37.149Z,13.10
2023-04-18T08:18:00.650Z,7.22
2023-04-18T08:20:30.390Z,6.95
2023-04-18T08:22:46.801Z,6.95
2023-04-18T08:23:07.692Z,6.30
2023-04-18T08:25:36.223Z,6.43
2023-04-18T08:27:37.105Z,6.43
2023-04-18T08:28:02.646Z,8.75
2023-04-18T08:30:29.331Z,7.25
2023-04-18T08:32:37.202Z,7.25
2023-04-18T08:32:55.722Z,9.57
2023-04-18T08:35:22.250Z,6.07
2023-04-18T08:37:37.115Z,6.07
2023-04-18T08:37:48.561Z,7.68
2023-04-18T08:40:14.988Z,6.47
2023-04-18T08:42:37.135Z,6.47
2023-04-18T08:42:44.695Z,7.68
2023-04-18T08:45:14.125Z,5.75
2023-04-18T08:47:37.211Z,5.75
2023-04-18T08:47:41.779Z,6.15
2023-04-18T08:50:10.046Z,6.38
2023-04-18T08:52:37.766Z,6.90
2023-04-18T08:52:37.928Z,6.90
2023-04-18T08:55:05.240Z,7.38
2023-04-18T08:57:33.117Z,9.82
2023-04-18T08:57:37.109Z,9.82
2023-04-18T09:00:02.188Z,8.98
2023-04-18T09:02:42.339Z,11.20
2023-04-18T09:02:43.226Z,11.20
2023-04-18T09:05:14.024Z,7.03
2023-04-18T09:07:37.098Z,7.03
2023-04-18T09:07:41.344Z,6.07
2023-04-18T09:10:09.882Z,11.77
2023-04-18T09:12:50.110Z,11.30
2023-04-18T09:12:50.832Z,11.30
2023-04-18T09:15:20.308Z,7.78
2023-04-18T09:17:37.109Z,7.78
2023-04-18T09:17:58.076Z,9.43
2023-04-18T09:20:38.368Z,9.18
2023-04-18T09:22:38.405Z,9.18
2023-04-18T09:23:14.612Z,7.40
2023-04-18T09:25:43.220Z,8.68
2023-04-18T09:27:37.130Z,8.68
2023-04-18T09:28:27.873Z,8.38
2023-04-18T09:30:59.435Z,6.93
2023-04-18T09:32:37.163Z,6.93
2023-04-18T09:33:36.864Z,7.68
2023-04-18T09:36:21.325Z,7.47
2023-04-18T09:37:37.117Z,7.47
2023-04-18T09:38:49.173Z,7.55
2023-04-18T09:41:19.915Z,7.55
2023-04-18T09:42:37.150Z,7.55
2023-04-18T09:43:48.328Z,7.18
2023-04-18T09:46:17.518Z,8.38
2023-04-18T09:47:37.227Z,8.38
2023-04-18T09:48:44.322Z,6.53
2023-04-18T09:51:14.193Z,9.43
2023-04-18T09:52:37.143Z,9.43
2023-04-18T09:53:44.426Z,10.70
2023-04-18T09:56:27.536Z,7.70
2023-04-18T09:57:37.144Z,7.70
2023-04-18T09:59:03.095Z,7.05
2023-04-18T10:01:29.874Z,8.02
2023-04-18T10:02:37.200Z,8.02
2023-04-18T10:03:57.665Z,8.13
2023-04-18T10:06:27.285Z,7.18
2023-04-18T10:07:37.216Z,7.18
2023-04-18T10:08:54.964Z,9.35
2023-04-18T10:11:22.121Z,7.35
2023-04-18T10:12:37.163Z,7.35
2023-04-18T10:13:50.463Z,8.80
2023-04-18T10:16:17.298Z,8.38
2023-04-18T10:17:37.557Z,8.38
2023-04-18T10:18:43.689Z,7.80
2023-04-18T10:21:10.120Z,8.02
2023-04-18T10:22:37.126Z,8.02
2023-04-18T10:23:38.594Z,7.50
2023-04-18T10:26:14.974Z,6.50
2023-04-18T10:27:37.142Z,6.50
2023-04-18T10:28:58.707Z,9.57
2023-04-18T10:31:28.910Z,7.18
2023-04-18T10:32:37.148Z,7.18
2023-04-18T10:36:28.249Z,8.00
2023-04-18T10:37:37.148Z,8.00
2023-04-18T10:38:59.689Z,8.60
2023-04-18T10:41:28.235Z,7.40
2023-04-18T10:42:37.182Z,7.40
2023-04-18T10:44:09.923Z,7.38
2023-04-18T10:46:38.041Z,9.00
2023-04-18T10:47:37.292Z,9.00
2023-04-18T10:49:17.392Z,7.47
2023-04-18T10:51:45.220Z,12.02
2023-04-18T10:52:37.155Z,12.02
2023-04-18T10:54:19.867Z,12.13
2023-04-18T10:56:57.718Z,8.65
2023-04-18T10:57:37.164Z,8.65
2023-04-18T10:59:26.137Z,10.30
2023-04-18T11:01:59.539Z,7.68
2023-04-18T11:02:37.249Z,7.68
2023-04-18T11:04:26.046Z,7.72
2023-04-18T11:07:00.316Z,10.02
2023-04-18T11:07:37.153Z,10.02
2023-04-18T11:09:26.704Z,8.52
2023-04-18T11:12:10.553Z,8.20
2023-04-18T11:12:37.156Z,8.20
2023-04-18T11:14:43.954Z,9.32
2023-04-18T11:17:27.797Z,10.25
2023-04-18T11:17:37.196Z,10.25
2023-04-18T11:20:01.376Z,14.77
2023-04-18T11:22:28.026Z,10.57
2023-04-18T11:22:37.186Z,10.57
2023-04-18T11:24:58.951Z,10.40
2023-04-18T11:27:29.257Z,10.77
2023-04-18T11:27:37.191Z,10.77
2023-04-18T11:29:56.122Z,8.25
2023-04-18T11:32:24.139Z,11.18
2023-04-18T11:32:37.208Z,11.18
2023-04-18T11:34:54.953Z,10.98
2023-04-18T11:37:21.784Z,8.00
2023-04-18T11:37:37.142Z,8.00
2023-04-18T11:39:48.165Z,9.20
2023-04-18T11:42:14.838Z,8.43
2023-04-18T11:42:37.198Z,8.43
2023-04-18T11:44:45.760Z,11.52
2023-04-18T11:47:29.892Z,9.57
2023-04-18T11:47:37.277Z,9.57
2023-04-18T11:50:00.050Z,8.68
2023-04-18T11:52:27.979Z,7.80
2023-04-18T11:52:37.241Z,7.80
2023-04-18T11:54:55.504Z,10.40
2023-04-18T11:57:27.359Z,9.10
2023-04-18T11:57:37.260Z,9.10
2023-04-18T11:59:56.577Z,8.98
2023-04-18T12:02:38.677Z,7.63
2023-04-18T12:02:39.102Z,7.63
2023-04-18T12:05:06.292Z,8.40
2023-04-18T12:07:44.484Z,10.38
2023-04-18T12:07:44.612Z,10.38
2023-04-18T12:10:19.848Z,8.73
2023-04-18T12:12:37.349Z,8.73
2023-04-18T12:12:58.712Z,9.45
2023-04-18T12:15:28.122Z,10.48
2023-04-18T12:17:37.434Z,10.48
2023-04-18T12:18:02.385Z,9.10
2023-04-18T12:20:47.311Z,11.02
2023-04-18T12:22:37.424Z,11.02
2023-04-18T12:23:37.205Z,10.00
2023-04-18T12:26:04.563Z,12.13
2023-04-18T12:27:37.445Z,12.13
2023-04-18T12:28:31.824Z,13.88
2023-04-18T12:30:58.858Z,9.80
2023-04-18T12:32:37.513Z,9.80
2023-04-18T12:33:25.523Z,11.27
2023-04-18T12:35:52.723Z,9.00
2023-04-18T12:37:37.500Z,9.00
2023-04-18T12:38:23.163Z,10.73
2023-04-18T12:40:51.050Z,9.23
2023-04-18T12:42:37.525Z,9.23
2023-04-18T12:43:18.263Z,9.73
2023-04-18T12:45:45.704Z,10.45
2023-04-18T12:47:37.744Z,10.45
2023-04-18T12:48:12.666Z,8.10
2023-04-18T12:50:39.218Z,8.18
2023-04-18T12:52:37.653Z,8.18
2023-04-18T12:53:06.006Z,8.02
2023-04-18T12:55:32.727Z,10.82
2023-04-18T12:57:37.610Z,10.82
2023-04-18T12:57:59.196Z,8.95
2023-04-18T13:00:29.150Z,7.97
2023-04-18T13:02:37.860Z,7.97
2023-04-18T13:02:56.390Z,9.13
2023-04-18T13:05:29.873Z,9.80
2023-04-18T13:07:37.715Z,9.80
2023-04-18T13:08:15.425Z,11.73
2023-04-18T13:10:44.049Z,8.65
2023-04-18T13:12:37.718Z,8.65
2023-04-18T13:13:10.788Z,9.23
2023-04-18T13:15:37.303Z,10.85
2023-04-18T13:17:38.133Z,10.85
2023-04-18T13:18:06.333Z,10.52
2023-04-18T13:20:34.011Z,10.38
2023-04-18T13:22:37.783Z,10.38
2023-04-18T13:23:01.757Z,11.10
2023-04-18T13:25:28.138Z,11.82
2023-04-18T13:27:39.625Z,11.82
2023-04-18T13:27:55.218Z,15.55
2023-04-18T13:30:21.639Z,12.30
2023-04-18T13:32:37.940Z,12.30
2023-04-18T13:32:47.968Z,10.35
2023-04-18T13:35:14.602Z,9.75
2023-04-18T13:37:37.907Z,9.75
2023-04-18T13:37:41.036Z,10.48
2023-04-18T13:40:08.096Z,8.57
2023-04-18T13:42:36.147Z,11.20
2023-04-18T13:42:37.923Z,11.20
2023-04-18T13:45:03.405Z,8.82
2023-04-18T13:47:29.968Z,9.95
2023-04-18T13:47:38.095Z,9.95
2023-04-18T13:49:57.670Z,11.07
2023-04-18T13:52:24.507Z,11.85
2023-04-18T13:52:37.996Z,11.85
2023-04-18T13:54:50.950Z,10.82
2023-04-18T13:57:17.362Z,10.40
2023-04-18T13:57:38.049Z,10.40
2023-04-18T13:59:43.742Z,9.65
2023-04-18T14:02:10.585Z,13.05
2023-04-18T14:02:38.307Z,13.05
2023-04-18T14:04:37.360Z,9.65
2023-04-18T14:07:04.035Z,9.13
2023-04-18T14:07:38.073Z,9.13
2023-04-18T14:09:30.532Z,8.70
2023-04-18T14:11:58.184Z,8.63
2023-04-18T14:12:38.117Z,8.63
2023-04-18T14:14:24.607Z,8.73
2023-04-18T14:16:51.215Z,11.43
2023-04-18T14:17:38.112Z,11.43
2023-04-18T14:19:17.935Z,10.88
2023-04-18T14:21:44.330Z,9.88
2023-04-18T14:22:38.077Z,9.88
2023-04-18T14:24:11.997Z,9.73
2023-04-18T14:26:38.379Z,8.90
2023-04-18T14:27:38.026Z,8.90
2023-04-18T14:29:05.144Z,8.75
2023-04-18T14:31:31.656Z,9.32
2023-04-18T14:32:38.162Z,9.32
2023-04-18T14:33:58.121Z,9.60
2023-04-18T14:36:24.568Z,9.13
2023-04-18T14:37:38.038Z,9.13
2023-04-18T14:38:51.345Z,11.73
2023-04-18T14:41:17.693Z,11.50
2023-04-18T14:42:38.060Z,11.50
2023-04-18T14:43:44.071Z,10.88
2023-04-18T14:46:12.332Z,12.20
2023-04-18T14:47:38.139Z,12.20
2023-04-18T14:48:38.789Z,10.93
2023-04-18T14:51:05.289Z,10.85
2023-04-18T14:52:38.108Z,10.85
2023-04-18T14:53:31.675Z,9.57
2023-04-18T14:55:57.987Z,9.05
2023-04-18T14:57:38.039Z,9.05
2023-04-18T14:58:24.435Z,10.68
2023-04-18T15:00:50.763Z,13.73
2023-04-18T15:02:38.283Z,13.73
2023-04-18T15:03:17.308Z,8.80
2023-04-18T15:05:46.433Z,12.48
2023-04-18T15:07:38.062Z,12.48
2023-04-18T15:08:13.414Z,9.55
2023-04-18T15:10:41.058Z,9.35
2023-04-18T15:12:38.039Z,9.35
2023-04-18T15:13:07.534Z,9.35
2023-04-18T15:15:35.509Z,8.82
2023-04-18T15:17:38.140Z,8.82
2023-04-18T15:18:02.778Z,8.95
2023-04-18T15:20:29.595Z,8.68
2023-04-18T15:22:38.064Z,8.68
2023-04-18T15:22:56.903Z,8.50
2023-04-18T15:25:23.633Z,8.25
2023-04-18T15:27:38.071Z,8.25
2023-04-18T15:27:50.096Z,10.50
2023-04-18T15:30:16.452Z,9.07
2023-04-18T15:32:38.107Z,9.07
2023-04-18T15:32:45.499Z,8.60
2023-04-18T15:35:12.701Z,12.30
2023-04-18T15:37:39.238Z,9.00
2023-04-18T15:37:39.397Z,9.00
2023-04-18T15:40:09.271Z,8.35
2023-04-18T15:42:38.752Z,9.10
2023-04-18T15:42:38.915Z,9.10
2023-04-18T15:45:05.638Z,7.97
2023-04-18T15:47:33.650Z,7.35
2023-04-18T15:47:38.153Z,7.35
2023-04-18T15:50:00.674Z,8.48
2023-04-18T15:52:27.034Z,7.72
2023-04-18T15:52:38.115Z,7.72
2023-04-18T15:54:53.774Z,13.20
2023-04-18T15:57:20.975Z,7.65
2023-04-18T15:57:38.082Z,7.65
2023-04-18T15:59:47.374Z,7.43
2023-04-18T16:02:13.887Z,8.05
2023-04-18T16:02:38.127Z,8.05
2023-04-18T16:04:40.499Z,8.20
2023-04-18T16:07:08.120Z,7.38
2023-04-18T16:07:38.060Z,7.38
2023-04-18T16:09:34.564Z,7.47
2023-04-18T16:12:03.099Z,7.75
2023-04-18T16:12:38.103Z,7.75
2023-04-18T16:14:30.417Z,8.05
2023-04-18T16:17:00.164Z,7.13
2023-04-18T16:17:38.147Z,7.13
2023-04-18T16:19:26.685Z,7.68
2023-04-18T16:21:53.082Z,7.40
2023-04-18T16:22:38.089Z,7.40
2023-04-18T16:24:19.554Z,7.85
2023-04-18T16:26:46.295Z,8.07
2023-04-18T16:27:38.095Z,8.07
2023-04-18T16:29:14.905Z,8.13
2023-04-18T16:31:43.113Z,7.07
2023-04-18T16:32:38.163Z,7.07
2023-04-18T16:34:09.712Z,7.95
2023-04-18T16:36:36.218Z,6.95
2023-04-18T16:37:38.114Z,6.95
2023-04-18T16:39:02.592Z,8.80
2023-04-18T16:41:28.941Z,10.20
2023-04-18T16:42:38.079Z,10.20
2023-04-18T16:43:55.397Z,12.15
2023-04-18T16:46:21.889Z,10.32
2023-04-18T16:47:38.172Z,10.32
2023-04-18T16:48:49.858Z,10.85
2023-04-18T16:51:18.349Z,10.27
2023-04-18T16:52:38.102Z,10.27
2023-04-18T16:53:46.332Z,12.15
2023-04-18T16:56:12.717Z,9.07
2023-04-18T16:57:38.082Z,9.07
2023-04-18T16:58:39.121Z,11.07
2023-04-18T17:01:08.141Z,9.65
2023-04-18T17:02:38.213Z,9.65
2023-04-18T17:03:34.719Z,10.43
2023-04-18T17:06:01.611Z,10.77
2023-04-18T17:07:38.074Z,10.77
2023-04-18T17:08:28.801Z,11.85
2023-04-18T17:10:55.353Z,14.40
2023-04-18T17:12:38.118Z,14.40
2023-04-18T17:13:26.620Z,8.93
2023-04-18T17:15:53.710Z,13.65
2023-04-18T17:17:38.117Z,13.65
2023-04-18T17:18:20.024Z,11.10
2023-04-18T17:20:46.422Z,8.85
2023-04-18T17:22:38.120Z,8.85
2023-04-18T17:23:13.279Z,12.52
2023-04-18T17:25:39.687Z,10.50
2023-04-18T17:27:38.104Z,10.50
2023-04-18T17:28:06.100Z,10.98
2023-04-18T17:30:32.557Z,17.65
2023-04-18T17:32:38.178Z,17.65
2023-04-18T17:32:58.989Z,9.93
2023-04-18T17:35:25.789Z,10.13
2023-04-18T17:37:38.096Z,10.13
2023-04-18T17:37:52.853Z,12.40
2023-04-18T17:40:19.184Z,9.55
2023-04-18T17:42:38.091Z,9.55
2023-04-18T17:42:45.732Z,15.48
2023-04-18T17:45:12.200Z,12.60
2023-04-18T17:47:38.762Z,11.68
2023-04-18T17:47:39.014Z,11.68
2023-04-18T17:50:05.748Z,10.07
2023-04-18T17:52:32.414Z,13.00
2023-04-18T17:52:38.090Z,13.00
2023-04-18T17:54:59.544Z,10.75
2023-04-18T17:57:26.668Z,18.75
2023-04-18T17:57:38.162Z,18.75
2023-04-18T17:59:53.479Z,11.45
2023-04-18T18:02:23.537Z,11.45
2023-04-18T18:02:38.279Z,11.45
2023-04-18T18:04:50.312Z,10.57
2023-04-18T18:07:16.907Z,14.15
2023-04-18T18:07:38.121Z,14.15
2023-04-18T18:09:43.323Z,15.43
2023-04-18T18:12:09.947Z,11.00
2023-04-18T18:12:38.147Z,11.00
2023-04-18T18:14:36.574Z,11.40
2023-04-18T18:17:03.373Z,10.95
2023-04-18T18:17:38.163Z,10.95
2023-04-18T18:19:29.895Z,14.00
2023-04-18T18:21:58.658Z,9.43
2023-04-18T18:22:38.136Z,9.43
2023-04-18T18:24:26.840Z,11.82
2023-04-18T18:26:53.286Z,14.15
2023-04-18T18:27:38.146Z,14.15
2023-04-18T18:29:20.246Z,13.25
2023-04-18T18:31:46.824Z,14.18
2023-04-18T18:32:38.192Z,14.18
2023-04-18T18:34:13.531Z,12.65
2023-04-18T18:36:40.170Z,10.23
2023-04-18T18:37:38.130Z,10.23
2023-04-18T18:39:06.971Z,12.23
2023-04-18T18:41:33.374Z,10.35
2023-04-18T18:42:38.146Z,10.35
2023-04-18T18:43:59.908Z,11.38
2023-04-18T18:46:27.201Z,15.75
2023-04-18T18:47:39.870Z,15.75
2023-04-18T18:48:53.592Z,12.13
2023-04-18T18:51:20.054Z,11.90
2023-04-18T18:52:38.150Z,11.90
2023-04-18T18:53:46.701Z,12.30
2023-04-18T18:56:13.224Z,11.38
2023-04-18T18:57:38.140Z,11.38
2023-04-18T18:58:40.376Z,14.15
2023-04-18T19:01:06.767Z,12.20
2023-04-18T19:02:38.476Z,12.20
2023-04-18T19:03:34.667Z,15.55
2023-04-18T19:06:03.884Z,11.57
2023-04-18T19:07:38.102Z,11.57
2023-04-18T19:08:30.863Z,11.43
2023-04-18T19:10:57.233Z,10.45
2023-04-18T19:12:38.167Z,10.45
2023-04-18T19:13:24.088Z,9.32
2023-04-18T19:15:52.959Z,12.25
2023-04-18T19:17:38.191Z,12.25
2023-04-18T19:18:20.263Z,13.05
2023-04-18T19:20:46.903Z,12.23
2023-04-18T19:22:38.150Z,12.23
2023-04-18T19:23:13.357Z,12.98
2023-04-18T19:25:39.803Z,9.30
2023-04-18T19:27:38.172Z,9.30
2023-04-18T19:28:06.492Z,11.13
2023-04-18T19:30:32.849Z,12.40
2023-04-18T19:32:38.191Z,12.40
2023-04-18T19:32:59.285Z,10.57
2023-04-18T19:35:25.990Z,9.75
2023-04-18T19:37:38.154Z,9.75
2023-04-18T19:37:52.343Z,11.40
2023-04-18T19:40:18.881Z,13.70
2023-04-18T19:42:38.136Z,13.70
2023-04-18T19:42:46.179Z,14.80
2023-04-18T19:45:14.956Z,15.23
2023-04-18T19:47:38.306Z,15.23
2023-04-18T19:47:43.912Z,18.80
2023-04-18T19:50:11.465Z,10.32
2023-04-18T19:52:37.974Z,11.43
2023-04-18T19:52:38.141Z,11.43
2023-04-18T19:55:05.020Z,10.82
2023-04-18T19:57:31.615Z,9.77
2023-04-18T19:57:38.136Z,9.77
2023-04-18T19:59:58.078Z,11.52
2023-04-18T20:02:24.544Z,14.25
2023-04-18T20:02:38.375Z,14.25
2023-04-18T20:04:51.213Z,10.85
2023-04-18T20:07:17.897Z,12.52
2023-04-18T20:07:38.164Z,12.52
2023-04-18T20:09:44.232Z,10.82
2023-04-18T20:12:10.750Z,11.07
2023-04-18T20:12:38.162Z,11.07
2023-04-18T20:14:37.074Z,11.15
2023-04-18T20:17:03.387Z,10.85
2023-04-18T20:17:38.187Z,10.85
2023-04-18T20:19:29.899Z,11.07
2023-04-18T20:21:56.405Z,12.30
2023-04-18T20:22:38.173Z,12.30
2023-04-18T20:24:23.635Z,13.45
2023-04-18T20:26:51.401Z,11.48
2023-04-18T20:27:38.142Z,11.48
2023-04-18T20:29:17.788Z,9.32
2023-04-18T20:31:44.271Z,11.02
2023-04-18T20:32:38.182Z,11.02
2023-04-18T20:34:11.034Z,11.85
2023-04-18T20:36:41.597Z,11.82
2023-04-18T20:37:38.140Z,11.82
2023-04-18T20:39:08.946Z,12.90
2023-04-18T20:41:36.800Z,11.15
2023-04-18T20:42:38.158Z,11.15
2023-04-18T20:44:06.540Z,9.20
2023-04-18T20:46:33.104Z,11.25
2023-04-18T20:47:38.219Z,11.25
2023-04-18T20:48:59.699Z,13.10
2023-04-18T20:51:26.820Z,9.75
2023-04-18T20:52:38.170Z,9.75
2023-04-18T20:53:53.192Z,9.25
2023-04-18T20:56:20.113Z,13.45
2023-04-18T20:57:38.221Z,13.45
2023-04-18T20:58:46.561Z,10.18
2023-04-18T21:01:12.944Z,10.50
2023-04-18T21:02:38.274Z,10.50
2023-04-18T21:03:39.445Z,8.73
2023-04-18T21:06:06.026Z,9.55
2023-04-18T21:07:38.159Z,9.55
2023-04-18T21:08:35.041Z,9.60
2023-04-18T21:11:01.454Z,11.95
2023-04-18T21:12:38.171Z,11.95
2023-04-18T21:13:27.852Z,11.10
2023-04-18T21:15:57.065Z,10.65
2023-04-18T21:17:38.202Z,10.65
2023-04-18T21:18:23.832Z,11.05
2023-04-18T21:20:50.393Z,8.70
2023-04-18T21:22:38.176Z,8.70
2023-04-18T21:23:16.866Z,10.82
2023-04-18T21:25:43.326Z,9.52
2023-04-18T21:27:38.159Z,9.52
2023-04-18T21:28:09.743Z,10.68
2023-04-18T21:30:36.334Z,10.23
2023-04-18T21:32:38.212Z,10.23
2023-04-18T21:33:03.058Z,10.48
2023-04-18T21:35:29.993Z,9.70
2023-04-18T21:37:38.138Z,9.70
2023-04-18T21:37:56.674Z,7.88
2023-04-18T21:40:24.268Z,8.75
2023-04-18T21:42:38.165Z,8.75
2023-04-18T21:42:53.612Z,9.18
2023-04-18T21:45:20.074Z,13.05